sensor_id;sensor_type;location;lat;lon;timestamp;pressure;altitude;pressure_sealevel;temperature;humidity
55490;BME280;44029;52.956;4.772;2023-04-30T00:00:41;102537.56;;;11.75;100.00
55490;BME280;44029;52.956;4.772;2023-04-30T00:03:06;102535.69;;;11.63;100.00
55490;BME280;44029;52.956;4.772;2023-04-30T00:05:31;102539.78;;;11.33;100.00
55490;BME280;44029;52.956;4.772;2023-04-30T00:07:57;102534.00;;;11.61;100.00
55490;BME280;44029;52.956;4.772;2023-04-30T00:10:23;102537.00;;;11.53;100.00
55490;BME280;44029;52.956;4.772;2023-04-30T00:12:48;102535.09;;;11.47;100.00
55490;BME280;44029;52.956;4.772;2023-04-30T00:15:13;102535.97;;;11.48;100.00
55490;BME280;44029;52.956;4.772;2023-04-30T00:17:39;102535.66;;;11.69;100.00
55490;BME280;44029;52.956;4.772;2023-04-30T00:20:05;102535.09;;;11.60;100.00
55490;BME280;44029;52.956;4.772;2023-04-30T00:22:31;102536.75;;;11.68;100.00
55490;BME280;44029;52.956;4.772;2023-04-30T00:24:57;102534.66;;;11.50;100.00
55490;BME280;44029;52.956;4.772;2023-04-30T00:27:23;102529.84;;;11.46;100.00
55490;BME280;44029;52.956;4.772;2023-04-30T00:29:48;102533.22;;;11.48;100.00
55490;BME280;44029;52.956;4.772;2023-04-30T00:32:13;102532.97;;;11.49;100.00
55490;BME280;44029;52.956;4.772;2023-04-30T00:34:39;102525.78;;;11.61;100.00
55490;BME280;44029;52.956;4.772;2023-04-30T00:37:05;102531.97;;;11.30;100.00
55490;BME280;44029;52.956;4.772;2023-04-30T00:39:30;102536.38;;;11.45;100.00
55490;BME280;44029;52.956;4.772;2023-04-30T00:41:55;102531.25;;;11.68;100.00
55490;BME280;44029;52.956;4.772;2023-04-30T00:44:21;102541.34;;;11.74;100.00
55490;BME280;44029;52.956;4.772;2023-04-30T00:46:46;102549.38;;;11.83;100.00
55490;BME280;44029;52.956;4.772;2023-04-30T00:49:11;102543.06;;;11.62;100.00
55490;BME280;44029;52.956;4.772;2023-04-30T00:51:39;102544.16;;;11.61;100.00
55490;BME280;44029;52.956;4.772;2023-04-30T00:54:05;102543.72;;;11.64;100.00
55490;BME280;44029;52.956;4.772;2023-04-30T00:56:32;102543.34;;;11.40;100.00
55490;BME280;44029;52.956;4.772;2023-04-30T00:58:57;102542.28;;;11.55;100.00
55490;BME280;44029;52.956;4.772;2023-04-30T01:01:25;102543.53;;;11.59;100.00
55490;BME280;44029;52.956;4.772;2023-04-30T01:03:51;102541.25;;;11.43;100.00
55490;BME280;44029;52.956;4.772;2023-04-30T01:06:16;102540.44;;;11.22;100.00
55490;BME280;44029;52.956;4.772;2023-04-30T01:08:42;102542.53;;;11.33;100.00
55490;BME280;44029;52.956;4.772;2023-04-30T01:11:16;102542.53;;;11.20;100.00
55490;BME280;44029;52.956;4.772;2023-04-30T01:16:24;102541.06;;;10.77;100.00
55490;BME280;44029;52.956;4.772;2023-04-30T01:18:58;102549.69;;;11.34;100.00
55490;BME280;44029;52.956;4.772;2023-04-30T01:21:26;102544.63;;;11.31;100.00
55490;BME280;44029;52.956;4.772;2023-04-30T01:27:24;102541.47;;;11.08;100.00
55490;BME280;44029;52.956;4.772;2023-04-30T01:29:55;102540.00;;;10.65;100.00
55490;BME280;44029;52.956;4.772;2023-04-30T01:32:20;102529.84;;;10.52;100.00
55490;BME280;44029;52.956;4.772;2023-04-30T01:34:46;102528.78;;;10.47;100.00
55490;BME280;44029;52.956;4.772;2023-04-30T01:40:07;102533.03;;;10.62;100.00
55490;BME280;44029;52.956;4.772;2023-04-30T01:42:42;102541.06;;;10.84;100.00
55490;BME280;44029;52.956;4.772;2023-04-30T01:48:30;102532.00;;;10.83;100.00
55490;BME280;44029;52.956;4.772;2023-04-30T01:51:13;102526.94;;;10.87;100.00
55490;BME280;44029;52.956;4.772;2023-04-30T01:53:41;102522.50;;;10.66;100.00
55490;BME280;44029;52.956;4.772;2023-04-30T01:56:33;102524.38;;;10.79;100.00
55490;BME280;44029;52.956;4.772;2023-04-30T01:58:58;102524.19;;;10.74;100.00
55490;BME280;44029;52.956;4.772;2023-04-30T02:01:31;102522.91;;;10.90;100.00
55490;BME280;44029;52.956;4.772;2023-04-30T02:03:57;102529.25;;;10.77;100.00
55490;BME280;44029;52.956;4.772;2023-04-30T02:06:23;102521.88;;;10.84;100.00
55490;BME280;44029;52.956;4.772;2023-04-30T02:08:56;102527.53;;;11.16;100.00
55490;BME280;44029;52.956;4.772;2023-04-30T02:11:27;102525.88;;;10.81;100.00
55490;BME280;44029;52.956;4.772;2023-04-30T02:13:53;102524.38;;;10.79;100.00
55490;BME280;44029;52.956;4.772;2023-04-30T02:16:18;102525.03;;;10.61;100.00
55490;BME280;44029;52.956;4.772;2023-04-30T02:18:44;102526.72;;;10.69;100.00
55490;BME280;44029;52.956;4.772;2023-04-30T02:21:10;102524.56;;;10.51;100.00
55490;BME280;44029;52.956;4.772;2023-04-30T02:23:35;102530.09;;;10.57;100.00
55490;BME280;44029;52.956;4.772;2023-04-30T02:26:01;102523.34;;;10.53;100.00
55490;BME280;44029;52.956;4.772;2023-04-30T02:28:27;102518.69;;;10.40;100.00
55490;BME280;44029;52.956;4.772;2023-04-30T02:30:52;102521.56;;;10.25;100.00
55490;BME280;44029;52.956;4.772;2023-04-30T02:33:17;102527.47;;;10.29;100.00
55490;BME280;44029;52.956;4.772;2023-04-30T02:35:43;102516.91;;;10.26;100.00
55490;BME280;44029;52.956;4.772;2023-04-30T02:38:08;102511.84;;;10.16;100.00
55490;BME280;44029;52.956;4.772;2023-04-30T02:40:34;102510.78;;;10.17;100.00
55490;BME280;44029;52.956;4.772;2023-04-30T02:42:59;102515.44;;;10.23;100.00
55490;BME280;44029;52.956;4.772;2023-04-30T02:45:25;102510.81;;;10.24;100.00
55490;BME280;44029;52.956;4.772;2023-04-30T02:47:51;102505.19;;;10.39;100.00
55490;BME280;44029;52.956;4.772;2023-04-30T02:50:16;102502.22;;;10.34;100.00
55490;BME280;44029;52.956;4.772;2023-04-30T02:52:43;102500.75;;;10.38;100.00
55490;BME280;44029;52.956;4.772;2023-04-30T02:55:09;102509.13;;;10.30;100.00
55490;BME280;44029;52.956;4.772;2023-04-30T02:57:34;102507.88;;;10.25;100.00
55490;BME280;44029;52.956;4.772;2023-04-30T02:59:59;102502.38;;;10.25;100.00
55490;BME280;44029;52.956;4.772;2023-04-30T03:02:25;102502.78;;;10.22;100.00
55490;BME280;44029;52.956;4.772;2023-04-30T03:04:50;102506.56;;;10.21;100.00
55490;BME280;44029;52.956;4.772;2023-04-30T03:07:15;102506.41;;;10.36;100.00
55490;BME280;44029;52.956;4.772;2023-04-30T03:09:40;102509.97;;;10.30;100.00
55490;BME280;44029;52.956;4.772;2023-04-30T03:12:06;102516.53;;;10.36;100.00
55490;BME280;44029;52.956;4.772;2023-04-30T03:14:31;102516.72;;;10.28;100.00
55490;BME280;44029;52.956;4.772;2023-04-30T03:16:57;102521.78;;;10.31;100.00
55490;BME280;44029;52.956;4.772;2023-04-30T03:19:22;102520.50;;;10.26;100.00
55490;BME280;44029;52.956;4.772;2023-04-30T03:21:50;102510.44;;;10.34;100.00
55490;BME280;44029;52.956;4.772;2023-04-30T03:24:16;102516.69;;;10.21;100.00
55490;BME280;44029;52.956;4.772;2023-04-30T03:26:41;102517.13;;;10.24;100.00
55490;BME280;44029;52.956;4.772;2023-04-30T03:29:07;102521.38;;;10.34;100.00
55490;BME280;44029;52.956;4.772;2023-04-30T03:31:32;102520.25;;;10.21;100.00
55490;BME280;44029;52.956;4.772;2023-04-30T03:33:58;102524.53;;;10.31;100.00
55490;BME280;44029;52.956;4.772;2023-04-30T03:36:23;102524.97;;;10.34;100.00
55490;BME280;44029;52.956;4.772;2023-04-30T03:38:48;102521.56;;;10.25;100.00
55490;BME280;44029;52.956;4.772;2023-04-30T03:41:14;102522.59;;;10.24;100.00
55490;BME280;44029;52.956;4.772;2023-04-30T03:43:39;102517.63;;;10.35;100.00
55490;BME280;44029;52.956;4.772;2023-04-30T03:46:05;102532.56;;;10.39;100.00
55490;BME280;44029;52.956;4.772;2023-04-30T03:48:30;102523.31;;;10.47;100.00
55490;BME280;44029;52.956;4.772;2023-04-30T03:50:56;102522.47;;;10.33;100.00
55490;BME280;44029;52.956;4.772;2023-04-30T03:53:21;102520.75;;;10.32;100.00
55490;BME280;44029;52.956;4.772;2023-04-30T03:55:48;102524.38;;;10.52;100.00
55490;BME280;44029;52.956;4.772;2023-04-30T03:58:13;102529.44;;;10.42;100.00
55490;BME280;44029;52.956;4.772;2023-04-30T04:00:39;102524.59;;;10.44;100.00
55490;BME280;44029;52.956;4.772;2023-04-30T04:03:05;102519.72;;;10.33;100.00
55490;BME280;44029;52.956;4.772;2023-04-30T04:05:31;102521.63;;;10.39;100.00
55490;BME280;44029;52.956;4.772;2023-04-30T04:07:56;102526.88;;;10.47;100.00
55490;BME280;44029;52.956;4.772;2023-04-30T04:10:22;102524.56;;;10.51;100.00
55490;BME280;44029;52.956;4.772;2023-04-30T04:12:47;102515.50;;;10.43;100.00
55490;BME280;44029;52.956;4.772;2023-04-30T04:15:12;102528.78;;;10.33;100.00
55490;BME280;44029;52.956;4.772;2023-04-30T04:17:38;102529.63;;;10.47;100.00
55490;BME280;44029;52.956;4.772;2023-04-30T04:20:04;102525.44;;;10.51;100.00
55490;BME280;44029;52.956;4.772;2023-04-30T04:22:30;102522.88;;;10.43;100.00
55490;BME280;44029;52.956;4.772;2023-04-30T04:24:55;102535.66;;;10.22;100.00
55490;BME280;44029;52.956;4.772;2023-04-30T04:27:21;102539.53;;;10.35;100.00
55490;BME280;44029;52.956;4.772;2023-04-30T04:29:47;102537.88;;;10.54;100.00
55490;BME280;44029;52.956;4.772;2023-04-30T04:32:13;102533.03;;;10.62;100.00
55490;BME280;44029;52.956;4.772;2023-04-30T04:34:38;102535.38;;;10.92;100.00
55490;BME280;44029;52.956;4.772;2023-04-30T04:37:04;102541.34;;;11.74;100.00
55490;BME280;44029;52.956;4.772;2023-04-30T04:39:29;102527.75;;;12.38;100.00
55490;BME280;44029;52.956;4.772;2023-04-30T04:41:54;102530.09;;;12.98;100.00
55490;BME280;44029;52.956;4.772;2023-04-30T04:44:20;102530.25;;;12.78;100.00
55490;BME280;44029;52.956;4.772;2023-04-30T04:46:45;102521.06;;;12.91;100.00
55490;BME280;44029;52.956;4.772;2023-04-30T04:49:11;102521.34;;;13.26;100.00
55490;BME280;44029;52.956;4.772;2023-04-30T04:51:36;102528.28;;;13.54;100.00
55490;BME280;44029;52.956;4.772;2023-04-30T04:54:03;102526.84;;;13.70;100.00
55490;BME280;44029;52.956;4.772;2023-04-30T04:56:29;102526.91;;;13.45;100.00
55490;BME280;44029;52.956;4.772;2023-04-30T04:58:54;102531.38;;;13.46;100.00
55490;BME280;44029;52.956;4.772;2023-04-30T05:01:19;102523.69;;;14.03;100.00
55490;BME280;44029;52.956;4.772;2023-04-30T05:03:45;102517.66;;;14.25;100.00
55490;BME280;44029;52.956;4.772;2023-04-30T05:06:11;102529.19;;;14.64;100.00
55490;BME280;44029;52.956;4.772;2023-04-30T05:08:36;102526.19;;;14.65;100.00
55490;BME280;44029;52.956;4.772;2023-04-30T05:11:02;102517.59;;;14.85;100.00
55490;BME280;44029;52.956;4.772;2023-04-30T05:13:28;102518.22;;;14.99;100.00
55490;BME280;44029;52.956;4.772;2023-04-30T05:15:53;102520.38;;;14.85;100.00
55490;BME280;44029;52.956;4.772;2023-04-30T05:18:19;102516.69;;;15.91;100.00
55490;BME280;44029;52.956;4.772;2023-04-30T05:20:44;102516.28;;;16.40;100.00
55490;BME280;44029;52.956;4.772;2023-04-30T05:23:10;102505.69;;;16.83;100.00
55490;BME280;44029;52.956;4.772;2023-04-30T05:25:35;102511.94;;;16.61;100.00
55490;BME280;44029;52.956;4.772;2023-04-30T05:28:01;102514.75;;;15.27;100.00
55490;BME280;44029;52.956;4.772;2023-04-30T05:30:27;102517.69;;;16.14;100.00
55490;BME280;44029;52.956;4.772;2023-04-30T05:32:53;102516.19;;;15.18;100.00
55490;BME280;44029;52.956;4.772;2023-04-30T05:35:18;102526.13;;;14.42;100.00
55490;BME280;44029;52.956;4.772;2023-04-30T05:37:44;102527.50;;;14.02;100.00
55490;BME280;44029;52.956;4.772;2023-04-30T05:40:10;102531.44;;;13.58;100.00
55490;BME280;44029;52.956;4.772;2023-04-30T05:42:36;102534.41;;;13.38;100.00
55490;BME280;44029;52.956;4.772;2023-04-30T05:45:03;102533.91;;;13.47;100.00
55490;BME280;44029;52.956;4.772;2023-04-30T05:47:28;102537.78;;;12.89;100.00
55490;BME280;44029;52.956;4.772;2023-04-30T05:49:53;102540.66;;;12.44;100.00
55490;BME280;44029;52.956;4.772;2023-04-30T05:52:19;102547.75;;;12.20;100.00
55490;BME280;44029;52.956;4.772;2023-04-30T05:54:44;102550.13;;;12.10;100.00
55490;BME280;44029;52.956;4.772;2023-04-30T05:57:09;102560.75;;;12.38;100.00
55490;BME280;44029;52.956;4.772;2023-04-30T05:59:35;102554.47;;;12.31;100.00
55490;BME280;44029;52.956;4.772;2023-04-30T06:02:00;102561.75;;;12.50;100.00
55490;BME280;44029;52.956;4.772;2023-04-30T06:04:25;102555.44;;;12.75;100.00
55490;BME280;44029;52.956;4.772;2023-04-30T06:06:51;102568.22;;;12.31;100.00
55490;BME280;44029;52.956;4.772;2023-04-30T06:09:16;102568.03;;;12.26;100.00
55490;BME280;44029;52.956;4.772;2023-04-30T06:11:41;102572.75;;;12.05;100.00
55490;BME280;44029;52.956;4.772;2023-04-30T06:14:09;102573.03;;;11.90;100.00
55490;BME280;44029;52.956;4.772;2023-04-30T06:16:35;102581.31;;;11.50;100.00
55490;BME280;44029;52.956;4.772;2023-04-30T06:19:00;102576.44;;;11.66;100.00
55490;BME280;44029;52.956;4.772;2023-04-30T06:21:25;102579.38;;;11.77;100.00
55490;BME280;44029;52.956;4.772;2023-04-30T06:23:51;102580.59;;;11.95;100.00
55490;BME280;44029;52.956;4.772;2023-04-30T06:26:18;102569.19;;;11.98;100.00
55490;BME280;44029;52.956;4.772;2023-04-30T06:28:44;102571.00;;;11.46;100.00
55490;BME280;44029;52.956;4.772;2023-04-30T06:31:10;102578.34;;;11.65;100.00
55490;BME280;44029;52.956;4.772;2023-04-30T06:33:36;102585.09;;;11.69;100.00
55490;BME280;44029;52.956;4.772;2023-04-30T06:36:01;102582.94;;;11.85;100.00
55490;BME280;44029;52.956;4.772;2023-04-30T06:38:26;102579.38;;;11.77;100.00
55490;BME280;44029;52.956;4.772;2023-04-30T06:40:52;102581.47;;;11.82;100.00
55490;BME280;44029;52.956;4.772;2023-04-30T06:43:17;102589.50;;;11.77;100.00
55490;BME280;44029;52.956;4.772;2023-04-30T06:45:42;102567.44;;;12.10;100.00
55490;BME280;44029;52.956;4.772;2023-04-30T06:48:08;102575.38;;;12.32;100.00
55490;BME280;44029;52.956;4.772;2023-04-30T06:50:34;102578.97;;;12.32;100.00
55490;BME280;44029;52.956;4.772;2023-04-30T06:52:59;102567.75;;;12.34;100.00
55490;BME280;44029;52.956;4.772;2023-04-30T06:55:25;102571.00;;;12.17;100.00
55490;BME280;44029;52.956;4.772;2023-04-30T06:57:52;102571.16;;;12.29;100.00
55490;BME280;44029;52.956;4.772;2023-04-30T07:00:18;102573.31;;;12.21;100.00
55490;BME280;44029;52.956;4.772;2023-04-30T07:02:44;102579.63;;;12.28;100.00
55490;BME280;44029;52.956;4.772;2023-04-30T07:05:11;102577.84;;;11.95;100.00
55490;BME280;44029;52.956;4.772;2023-04-30T07:07:37;102577.88;;;11.88;100.00
55490;BME280;44029;52.956;4.772;2023-04-30T07:10:02;102586.13;;;11.82;100.00
55490;BME280;44029;52.956;4.772;2023-04-30T07:12:28;102583.78;;;11.92;100.00
55490;BME280;44029;52.956;4.772;2023-04-30T07:14:53;102576.28;;;12.19;100.00
55490;BME280;44029;52.956;4.772;2023-04-30T07:17:19;102580.47;;;12.28;100.00
55490;BME280;44029;52.956;4.772;2023-04-30T07:19:44;102583.59;;;12.38;100.00
55490;BME280;44029;52.956;4.772;2023-04-30T07:22:10;102585.41;;;12.13;100.00
55490;BME280;44029;52.956;4.772;2023-04-30T07:24:35;102584.63;;;12.44;100.00
55490;BME280;44029;52.956;4.772;2023-04-30T07:27:00;102585.53;;;12.70;100.00
55490;BME280;44029;52.956;4.772;2023-04-30T07:29:28;102574.22;;;12.85;100.00
55490;BME280;44029;52.956;4.772;2023-04-30T07:31:53;102582.47;;;12.85;100.00
55490;BME280;44029;52.956;4.772;2023-04-30T07:34:19;102580.19;;;12.75;100.00
55490;BME280;44029;52.956;4.772;2023-04-30T07:36:44;102575.69;;;12.55;100.00
55490;BME280;44029;52.956;4.772;2023-04-30T07:39:10;102578.28;;;12.44;100.00
55490;BME280;44029;52.956;4.772;2023-04-30T07:41:36;102585.94;;;12.35;100.00
55490;BME280;44029;52.956;4.772;2023-04-30T07:44:01;102580.66;;;12.33;100.00
55490;BME280;44029;52.956;4.772;2023-04-30T07:46:26;102580.88;;;12.32;100.00
55490;BME280;44029;52.956;4.772;2023-04-30T07:48:52;102586.44;;;12.18;100.00
55490;BME280;44029;52.956;4.772;2023-04-30T07:51:17;102580.53;;;12.15;100.00
55490;BME280;44029;52.956;4.772;2023-04-30T07:53:42;102578.75;;;12.34;100.00
55490;BME280;44029;52.956;4.772;2023-04-30T07:56:08;102580.44;;;12.35;100.00
55490;BME280;44029;52.956;4.772;2023-04-30T07:58:33;102583.19;;;12.73;100.00
55490;BME280;44029;52.956;4.772;2023-04-30T08:00:58;102575.16;;;12.72;100.00
55490;BME280;44029;52.956;4.772;2023-04-30T08:03:24;102577.38;;;12.88;100.00
55490;BME280;44029;52.956;4.772;2023-04-30T08:05:50;102571.59;;;13.22;100.00
55490;BME280;44029;52.956;4.772;2023-04-30T08:08:16;102568.75;;;13.28;100.00
55490;BME280;44029;52.956;4.772;2023-04-30T08:10:41;102580.97;;;13.39;100.00
55490;BME280;44029;52.956;4.772;2023-04-30T08:13:06;102580.84;;;13.52;100.00
55490;BME280;44029;52.956;4.772;2023-04-30T08:15:32;102577.41;;;13.57;100.00
55490;BME280;44029;52.956;4.772;2023-04-30T08:17:58;102575.63;;;13.44;100.00
55490;BME280;44029;52.956;4.772;2023-04-30T08:20:23;102588.22;;;13.33;100.00
55490;BME280;44029;52.956;4.772;2023-04-30T08:22:49;102586.97;;;13.73;100.00
55490;BME280;44029;52.956;4.772;2023-04-30T08:25:14;102593.88;;;13.82;100.00
55490;BME280;44029;52.956;4.772;2023-04-30T08:27:39;102591.09;;;13.82;100.00
55490;BME280;44029;52.956;4.772;2023-04-30T08:30:06;102593.56;;;13.90;100.00
55490;BME280;44029;52.956;4.772;2023-04-30T08:32:35;102595.31;;;14.22;100.00
55490;BME280;44029;52.956;4.772;2023-04-30T08:35:03;102593.09;;;13.93;100.00
55490;BME280;44029;52.956;4.772;2023-04-30T08:37:28;102585.44;;;14.33;100.00
55490;BME280;44029;52.956;4.772;2023-04-30T08:39:54;102599.34;;;14.19;100.00
55490;BME280;44029;52.956;4.772;2023-04-30T08:42:20;102598.53;;;14.00;100.00
55490;BME280;44029;52.956;4.772;2023-04-30T08:44:48;102606.03;;;13.75;100.00
55490;BME280;44029;52.956;4.772;2023-04-30T08:47:15;102607.03;;;14.17;100.00
55490;BME280;44029;52.956;4.772;2023-04-30T08:49:42;102602.72;;;14.03;100.00
55490;BME280;44029;52.956;4.772;2023-04-30T08:52:07;102606.19;;;13.98;100.00
55490;BME280;44029;52.956;4.772;2023-04-30T08:54:35;102596.88;;;14.48;100.00
55490;BME280;44029;52.956;4.772;2023-04-30T08:57:00;102599.63;;;14.18;100.00
55490;BME280;44029;52.956;4.772;2023-04-30T08:59:26;102597.38;;;14.26;100.00
55490;BME280;44029;52.956;4.772;2023-04-30T09:01:52;102591.16;;;14.92;100.00
55490;BME280;44029;52.956;4.772;2023-04-30T09:04:17;102596.81;;;14.97;100.00
55490;BME280;44029;52.956;4.772;2023-04-30T09:06:43;102590.50;;;14.66;100.00
55490;BME280;44029;52.956;4.772;2023-04-30T09:09:11;102598.41;;;15.28;100.00
55490;BME280;44029;52.956;4.772;2023-04-30T09:11:37;102587.03;;;15.48;100.00
55490;BME280;44029;52.956;4.772;2023-04-30T09:14:02;102593.63;;;15.23;100.00
55490;BME280;44029;52.956;4.772;2023-04-30T09:16:29;102596.50;;;15.40;100.00
55490;BME280;44029;52.956;4.772;2023-04-30T09:19:08;102591.09;;;15.93;100.00
55490;BME280;44029;52.956;4.772;2023-04-30T09:21:35;102585.72;;;15.27;100.00
55490;BME280;44029;52.956;4.772;2023-04-30T09:24:02;102590.03;;;15.46;100.00
55490;BME280;44029;52.956;4.772;2023-04-30T09:26:33;102585.91;;;15.73;100.00
55490;BME280;44029;52.956;4.772;2023-04-30T09:28:59;102584.97;;;15.91;100.00
55490;BME280;44029;52.956;4.772;2023-04-30T09:31:25;102569.72;;;15.64;100.00
55490;BME280;44029;52.956;4.772;2023-04-30T09:33:51;102576.13;;;15.77;100.00
55490;BME280;44029;52.956;4.772;2023-04-30T09:36:18;102571.38;;;15.89;100.00
55490;BME280;44029;52.956;4.772;2023-04-30T09:38:43;102563.72;;;15.44;100.00
55490;BME280;44029;52.956;4.772;2023-04-30T09:41:23;102569.44;;;16.01;100.00
55490;BME280;44029;52.956;4.772;2023-04-30T09:43:48;102568.94;;;16.04;100.00
55490;BME280;44029;52.956;4.772;2023-04-30T09:46:14;102556.25;;;15.56;100.00
55490;BME280;44029;52.956;4.772;2023-04-30T09:48:40;102548.91;;;15.62;100.00
55490;BME280;44029;52.956;4.772;2023-04-30T09:51:05;102558.56;;;15.36;100.00
55490;BME280;44029;52.956;4.772;2023-04-30T09:53:32;102551.84;;;15.20;100.00
55490;BME280;44029;52.956;4.772;2023-04-30T09:56:06;102553.28;;;15.46;100.00
55490;BME280;44029;52.956;4.772;2023-04-30T09:58:35;102551.84;;;15.55;100.00
55490;BME280;44029;52.956;4.772;2023-04-30T10:01:04;102546.69;;;16.11;100.00
55490;BME280;44029;52.956;4.772;2023-04-30T10:03:31;102546.41;;;15.49;100.00
55490;BME280;44029;52.956;4.772;2023-04-30T10:05:57;102557.44;;;15.72;100.00
55490;BME280;44029;52.956;4.772;2023-04-30T10:08:26;102547.84;;;15.87;100.00
55490;BME280;44029;52.956;4.772;2023-04-30T10:10:57;102546.97;;;15.98;100.00
55490;BME280;44029;52.956;4.772;2023-04-30T10:13:24;102545.16;;;16.03;100.00
55490;BME280;44029;52.956;4.772;2023-04-30T10:15:53;102544.16;;;16.10;100.00
55490;BME280;44029;52.956;4.772;2023-04-30T10:18:27;102543.16;;;15.87;100.00
55490;BME280;44029;52.956;4.772;2023-04-30T10:20:54;102537.75;;;15.80;100.00
55490;BME280;44029;52.956;4.772;2023-04-30T10:23:21;102538.09;;;15.96;100.00
55490;BME280;44029;52.956;4.772;2023-04-30T10:25:47;102541.84;;;15.66;100.00
55490;BME280;44029;52.956;4.772;2023-04-30T10:28:13;102529.34;;;15.87;100.00
55490;BME280;44029;52.956;4.772;2023-04-30T10:30:40;102535.66;;;16.28;100.00
55490;BME280;44029;52.956;4.772;2023-04-30T10:35:58;102532.28;;;16.09;100.00
55490;BME280;44029;52.956;4.772;2023-04-30T10:38:26;102529.47;;;15.69;100.00
55490;BME280;44029;52.956;4.772;2023-04-30T10:41:05;102537.03;;;15.61;100.00
55490;BME280;44029;52.956;4.772;2023-04-30T10:43:30;102538.16;;;15.37;100.00
55490;BME280;44029;52.956;4.772;2023-04-30T10:45:57;102529.97;;;14.95;100.00
55490;BME280;44029;52.956;4.772;2023-04-30T10:48:23;102527.84;;;15.08;100.00
55490;BME280;44029;52.956;4.772;2023-04-30T10:50:54;102528.28;;;15.53;100.00
55490;BME280;44029;52.956;4.772;2023-04-30T10:53:20;102518.44;;;15.45;100.00
55490;BME280;44029;52.956;4.772;2023-04-30T10:55:52;102518.09;;;15.41;100.00
55490;BME280;44029;52.956;4.772;2023-04-30T10:58:30;102517.56;;;15.92;100.00
55490;BME280;44029;52.956;4.772;2023-04-30T11:01:04;102507.94;;;15.94;100.00
55490;BME280;44029;52.956;4.772;2023-04-30T11:03:31;102508.28;;;15.86;100.00
55490;BME280;44029;52.956;4.772;2023-04-30T11:05:59;102500.28;;;15.84;100.00
55490;BME280;44029;52.956;4.772;2023-04-30T11:08:37;102502.94;;;15.68;100.00
55490;BME280;44029;52.956;4.772;2023-04-30T11:11:03;102503.31;;;15.59;100.00
55490;BME280;44029;52.956;4.772;2023-04-30T11:13:46;102492.63;;;16.03;100.00
55490;BME280;44029;52.956;4.772;2023-04-30T11:16:12;102495.50;;;16.09;100.00
55490;BME280;44029;52.956;4.772;2023-04-30T11:18:44;102490.34;;;16.00;100.00
55490;BME280;44029;52.956;4.772;2023-04-30T11:21:11;102492.63;;;16.03;100.00
55490;BME280;44029;52.956;4.772;2023-04-30T11:23:40;102494.97;;;15.83;100.00
55490;BME280;44029;52.956;4.772;2023-04-30T11:26:07;102488.00;;;15.92;100.00
55490;BME280;44029;52.956;4.772;2023-04-30T11:28:36;102480.75;;;15.91;100.00
55490;BME280;44029;52.956;4.772;2023-04-30T11:31:02;102486.00;;;15.76;100.00
55490;BME280;44029;52.956;4.772;2023-04-30T11:33:29;102475.03;;;16.10;100.00
55490;BME280;44029;52.956;4.772;2023-04-30T11:35:56;102473.41;;;15.97;100.00
55490;BME280;44029;52.956;4.772;2023-04-30T11:38:43;102477.59;;;16.28;100.00
55490;BME280;44029;52.956;4.772;2023-04-30T11:41:12;102479.28;;;16.00;100.00
55490;BME280;44029;52.956;4.772;2023-04-30T11:43:38;102471.59;;;16.02;100.00
55490;BME280;44029;52.956;4.772;2023-04-30T11:46:14;102466.88;;;16.32;100.00
55490;BME280;44029;52.956;4.772;2023-04-30T11:48:43;102466.22;;;15.96;100.00
55490;BME280;44029;52.956;4.772;2023-04-30T11:51:19;102464.47;;;15.78;100.00
55490;BME280;44029;52.956;4.772;2023-04-30T11:53:47;102459.22;;;16.05;100.00
55490;BME280;44029;52.956;4.772;2023-04-30T11:56:13;102455.31;;;15.89;100.00
55490;BME280;44029;52.956;4.772;2023-04-30T11:58:38;102462.56;;;15.66;100.00
55490;BME280;44029;52.956;4.772;2023-04-30T12:01:07;102460.25;;;15.87;100.00
55490;BME280;44029;52.956;4.772;2023-04-30T12:03:43;102453.81;;;15.58;100.00
55490;BME280;44029;52.956;4.772;2023-04-30T12:06:10;102451.28;;;15.68;100.00
55490;BME280;44029;52.956;4.772;2023-04-30T12:08:35;102446.28;;;15.53;100.00
55490;BME280;44029;52.956;4.772;2023-04-30T12:11:01;102451.06;;;15.58;100.00
55490;BME280;44029;52.956;4.772;2023-04-30T12:13:30;102448.78;;;16.24;100.00
55490;BME280;44029;52.956;4.772;2023-04-30T12:15:59;102443.34;;;15.72;100.00
55490;BME280;44029;52.956;4.772;2023-04-30T12:18:25;102450.19;;;15.17;100.00
55490;BME280;44029;52.956;4.772;2023-04-30T12:20:51;102442.50;;;15.19;100.00
55490;BME280;44029;52.956;4.772;2023-04-30T12:23:18;102439.59;;;15.14;100.00
55490;BME280;44029;52.956;4.772;2023-04-30T12:25:43;102440.78;;;15.30;100.00
55490;BME280;44029;52.956;4.772;2023-04-30T12:28:09;102443.28;;;15.43;100.00
55490;BME280;44029;52.956;4.772;2023-04-30T12:30:36;102432.28;;;15.72;100.00
55490;BME280;44029;52.956;4.772;2023-04-30T12:33:01;102435.81;;;15.96;100.00
55490;BME280;44029;52.956;4.772;2023-04-30T12:35:29;102431.09;;;15.68;100.00
55490;BME280;44029;52.956;4.772;2023-04-30T12:38:05;102427.81;;;16.11;100.00
55490;BME280;44029;52.956;4.772;2023-04-30T12:40:30;102423.41;;;15.98;100.00
55490;BME280;44029;52.956;4.772;2023-04-30T12:43:05;102428.50;;;16.18;100.00
55490;BME280;44029;52.956;4.772;2023-04-30T12:45:50;102428.28;;;16.08;100.00
55490;BME280;44029;52.956;4.772;2023-04-30T12:48:17;102429.25;;;15.85;100.00
55490;BME280;44029;52.956;4.772;2023-04-30T12:50:59;102431.81;;;15.63;100.00
55490;BME280;44029;52.956;4.772;2023-04-30T12:53:26;102430.50;;;15.77;100.00